sensor_id;sensor_type;location;lat;lon;timestamp;P1;durP1;ratioP1;P2;durP2;ratioP2
9667;SDS011;4872;48.316;10.650;2022-09-20T04:13:14;4.93;;;3.17;;
9667;SDS011;4872;48.316;10.650;2022-09-20T04:15:57;3.73;;;3.00;;
9667;SDS011;4872;48.316;10.650;2022-09-20T04:18:36;4.80;;;2.73;;
9667;SDS011;4872;48.316;10.650;2022-09-20T04:21:10;4.57;;;3.13;;
9667;SDS011;4872;48.316;10.650;2022-09-20T04:23:45;6.10;;;3.53;;
9667;SDS011;4872;48.316;10.650;2022-09-20T04:26:22;3.93;;;3.00;;
9667;SDS011;4872;48.316;10.650;2022-09-20T04:28:53;3.70;;;3.03;;
9667;SDS011;4872;48.316;10.650;2022-09-20T04:31:29;3.43;;;2.70;;
9667;SDS011;4872;48.316;10.650;2022-09-20T04:34:03;4.17;;;3.13;;
9667;SDS011;4872;48.316;10.650;2022-09-20T04:36:51;4.00;;;3.07;;
9667;SDS011;4872;48.316;10.650;2022-09-20T04:39:23;6.10;;;2.97;;
9667;SDS011;4872;48.316;10.650;2022-09-20T04:42:14;3.47;;;2.67;;
9667;SDS011;4872;48.316;10.650;2022-09-20T04:45:09;4.80;;;3.03;;
9667;SDS011;4872;48.316;10.650;2022-09-20T04:54:11;6.70;;;4.53;;
9667;SDS011;4872;48.316;10.650;2022-09-20T04:57:04;5.63;;;4.13;;
9667;SDS011;4872;48.316;10.650;2022-09-20T04:59:53;5.20;;;4.37;;
9667;SDS011;4872;48.316;10.650;2022-09-20T05:02:47;7.40;;;4.13;;
9667;SDS011;4872;48.316;10.650;2022-09-20T05:05:41;8.43;;;4.10;;
9667;SDS011;4872;48.316;10.650;2022-09-20T05:11:49;6.07;;;4.53;;
9667;SDS011;4872;48.316;10.650;2022-09-20T05:14:40;6.73;;;4.23;;
9667;SDS011;4872;48.316;10.650;2022-09-20T05:17:20;4.47;;;3.00;;
9667;SDS011;4872;48.316;10.650;2022-09-20T05:20:03;3.30;;;2.47;;
9667;SDS011;4872;48.316;10.650;2022-09-20T05:22:50;3.33;;;2.37;;
9667;SDS011;4872;48.316;10.650;2022-09-20T05:25:45;6.00;;;3.20;;
9667;SDS011;4872;48.316;10.650;2022-09-20T05:28:33;5.40;;;3.10;;
9667;SDS011;4872;48.316;10.650;2022-09-20T05:31:08;5.70;;;3.13;;
9667;SDS011;4872;48.316;10.650;2022-09-20T05:33:39;3.70;;;3.10;;
9667;SDS011;4872;48.316;10.650;2022-09-20T05:36:16;4.37;;;3.13;;
9667;SDS011;4872;48.316;10.650;2022-09-20T05:38:53;5.60;;;2.90;;
9667;SDS011;4872;48.316;10.650;2022-09-20T05:41:28;4.17;;;3.47;;
9667;SDS011;4872;48.316;10.650;2022-09-20T05:44:01;4.03;;;3.23;;
9667;SDS011;4872;48.316;10.650;2022-09-20T05:46:43;5.13;;;3.87;;
9667;SDS011;4872;48.316;10.650;2022-09-20T05:49:20;5.10;;;3.47;;
9667;SDS011;4872;48.316;10.650;2022-09-20T05:52:00;5.77;;;3.73;;
9667;SDS011;4872;48.316;10.650;2022-09-20T05:54:52;4.20;;;3.50;;
9667;SDS011;4872;48.316;10.650;2022-09-20T05:57:31;6.03;;;2.97;;
9667;SDS011;4872;48.316;10.650;2022-09-20T06:00:08;5.30;;;3.20;;
9667;SDS011;4872;48.316;10.650;2022-09-20T06:02:42;4.87;;;3.30;;
9667;SDS011;4872;48.316;10.650;2022-09-20T06:05:15;3.27;;;2.97;;
9667;SDS011;4872;48.316;10.650;2022-09-20T06:07:53;6.63;;;3.70;;
9667;SDS011;4872;48.316;10.650;2022-09-20T06:10:56;5.03;;;3.23;;
9667;SDS011;4872;48.316;10.650;2022-09-20T06:13:34;3.43;;;2.90;;
9667;SDS011;4872;48.316;10.650;2022-09-20T06:16:11;7.37;;;3.77;;
9667;SDS011;4872;48.316;10.650;2022-09-20T06:18:44;6.57;;;3.83;;
9667;SDS011;4872;48.316;10.650;2022-09-20T06:21:22;6.03;;;2.93;;
9667;SDS011;4872;48.316;10.650;2022-09-20T06:23:57;5.57;;;3.30;;
9667;SDS011;4872;48.316;10.650;2022-09-20T06:26:26;6.83;;;3.80;;
9667;SDS011;4872;48.316;10.650;2022-09-20T06:28:58;10.20;;;3.90;;
9667;SDS011;4872;48.316;10.650;2022-09-20T06:31:28;7.03;;;3.40;;
9667;SDS011;4872;48.316;10.650;2022-09-20T06:33:57;5.20;;;2.93;;
9667;SDS011;4872;48.316;10.650;2022-09-20T06:36:28;6.50;;;3.73;;
9667;SDS011;4872;48.316;10.650;2022-09-20T06:39:15;14.23;;;4.33;;
9667;SDS011;4872;48.316;10.650;2022-09-20T06:42:07;22.47;;;6.57;;
9667;SDS011;4872;48.316;10.650;2022-09-20T06:44:34;29.17;;;8.17;;
9667;SDS011;4872;48.316;10.650;2022-09-20T06:47:05;27.70;;;7.13;;
9667;SDS011;4872;48.316;10.650;2022-09-20T06:49:33;20.67;;;6.23;;
9667;SDS011;4872;48.316;10.650;2022-09-20T06:52:01;8.83;;;3.50;;
9667;SDS011;4872;48.316;10.650;2022-09-20T06:54:30;10.47;;;4.33;;
9667;SDS011;4872;48.316;10.650;2022-09-20T06:56:57;9.97;;;3.90;;
9667;SDS011;4872;48.316;10.650;2022-09-20T06:59:26;5.63;;;3.23;;
9667;SDS011;4872;48.316;10.650;2022-09-20T07:01:53;7.47;;;3.23;;
9667;SDS011;4872;48.316;10.650;2022-09-20T07:04:20;4.23;;;3.40;;
9667;SDS011;4872;48.316;10.650;2022-09-20T07:06:52;5.73;;;3.27;;
9667;SDS011;4872;48.316;10.650;2022-09-20T07:09:25;5.70;;;3.27;;
9667;SDS011;4872;48.316;10.650;2022-09-20T07:11:52;6.40;;;3.60;;
9667;SDS011;4872;48.316;10.650;2022-09-20T07:14:20;5.97;;;3.67;;
9667;SDS011;4872;48.316;10.650;2022-09-20T07:16:47;6.47;;;3.23;;
9667;SDS011;4872;48.316;10.650;2022-09-20T07:19:14;6.93;;;3.70;;
9667;SDS011;4872;48.316;10.650;2022-09-20T07:21:41;8.67;;;3.90;;
9667;SDS011;4872;48.316;10.650;2022-09-20T07:24:09;7.53;;;3.73;;
9667;SDS011;4872;48.316;10.650;2022-09-20T07:26:39;5.43;;;3.83;;
9667;SDS011;4872;48.316;10.650;2022-09-20T07:29:18;3.90;;;3.60;;
9667;SDS011;4872;48.316;10.650;2022-09-20T07:31:45;5.80;;;3.43;;
9667;SDS011;4872;48.316;10.650;2022-09-20T07:34:14;13.10;;;3.97;;
9667;SDS011;4872;48.316;10.650;2022-09-20T07:36:42;16.27;;;5.17;;
9667;SDS011;4872;48.316;10.650;2022-09-20T07:39:10;12.00;;;5.27;;
9667;SDS011;4872;48.316;10.650;2022-09-20T07:41:37;6.13;;;3.87;;
9667;SDS011;4872;48.316;10.650;2022-09-20T07:44:03;5.63;;;4.00;;
9667;SDS011;4872;48.316;10.650;2022-09-20T07:46:46;14.27;;;5.03;;
9667;SDS011;4872;48.316;10.650;2022-09-20T07:49:13;8.07;;;4.00;;
9667;SDS011;4872;48.316;10.650;2022-09-20T07:51:39;6.70;;;3.80;;
9667;SDS011;4872;48.316;10.650;2022-09-20T07:54:06;9.70;;;4.47;;
9667;SDS011;4872;48.316;10.650;2022-09-20T07:56:34;7.73;;;4.80;;
9667;SDS011;4872;48.316;10.650;2022-09-20T07:59:01;6.77;;;4.23;;
9667;SDS011;4872;48.316;10.650;2022-09-20T08:01:29;7.13;;;4.10;;
9667;SDS011;4872;48.316;10.650;2022-09-20T08:03:55;7.63;;;4.33;;
9667;SDS011;4872;48.316;10.650;2022-09-20T08:06:22;6.33;;;4.13;;
9667;SDS011;4872;48.316;10.650;2022-09-20T08:08:50;7.80;;;4.40;;
9667;SDS011;4872;48.316;10.650;2022-09-20T08:11:19;7.10;;;4.80;;
9667;SDS011;4872;48.316;10.650;2022-09-20T08:13:51;8.87;;;5.20;;
9667;SDS011;4872;48.316;10.650;2022-09-20T08:16:18;8.10;;;4.63;;
9667;SDS011;4872;48.316;10.650;2022-09-20T08:18:46;10.23;;;4.67;;
9667;SDS011;4872;48.316;10.650;2022-09-20T08:21:14;9.43;;;5.23;;
9667;SDS011;4872;48.316;10.650;2022-09-20T08:23:41;10.83;;;5.17;;
9667;SDS011;4872;48.316;10.650;2022-09-20T08:26:10;8.63;;;5.57;;
9667;SDS011;4872;48.316;10.650;2022-09-20T08:28:38;7.13;;;5.20;;
9667;SDS011;4872;48.316;10.650;2022-09-20T08:31:07;14.43;;;4.83;;
9667;SDS011;4872;48.316;10.650;2022-09-20T08:33:35;5.57;;;4.53;;
9667;SDS011;4872;48.316;10.650;2022-09-20T08:36:02;8.30;;;5.13;;
9667;SDS011;4872;48.316;10.650;2022-09-20T08:38:30;10.33;;;5.23;;
9667;SDS011;4872;48.316;10.650;2022-09-20T08:40:58;8.00;;;5.20;;
9667;SDS011;4872;48.316;10.650;2022-09-20T08:43:31;8.73;;;5.40;;
9667;SDS011;4872;48.316;10.650;2022-09-20T08:46:01;8.50;;;5.07;;
9667;SDS011;4872;48.316;10.650;2022-09-20T08:48:31;7.30;;;5.33;;
9667;SDS011;4872;48.316;10.650;2022-09-20T08:50:59;11.43;;;5.47;;
9667;SDS011;4872;48.316;10.650;2022-09-20T08:53:28;6.77;;;4.60;;
9667;SDS011;4872;48.316;10.650;2022-09-20T08:55:55;7.23;;;3.90;;
9667;SDS011;4872;48.316;10.650;2022-09-20T08:58:23;6.53;;;4.07;;
9667;SDS011;4872;48.316;10.650;2022-09-20T09:00:51;5.40;;;4.90;;
9667;SDS011;4872;48.316;10.650;2022-09-20T09:03:19;5.97;;;4.27;;
9667;SDS011;4872;48.316;10.650;2022-09-20T09:05:48;6.57;;;5.27;;
9667;SDS011;4872;48.316;10.650;2022-09-20T09:08:17;8.03;;;4.90;;
9667;SDS011;4872;48.316;10.650;2022-09-20T09:10:46;9.53;;;5.20;;
9667;SDS011;4872;48.316;10.650;2022-09-20T09:13:20;6.87;;;4.93;;
9667;SDS011;4872;48.316;10.650;2022-09-20T09:15:52;7.50;;;5.07;;
9667;SDS011;4872;48.316;10.650;2022-09-20T09:18:24;10.27;;;5.07;;
9667;SDS011;4872;48.316;10.650;2022-09-20T09:21:00;6.40;;;4.47;;
9667;SDS011;4872;48.316;10.650;2022-09-20T09:23:29;6.57;;;4.83;;
9667;SDS011;4872;48.316;10.650;2022-09-20T09:26:02;7.80;;;4.80;;
9667;SDS011;4872;48.316;10.650;2022-09-20T09:28:30;9.13;;;4.63;;
9667;SDS011;4872;48.316;10.650;2022-09-20T09:31:10;6.50;;;5.90;;
9667;SDS011;4872;48.316;10.650;2022-09-20T09:33:42;8.10;;;4.73;;
9667;SDS011;4872;48.316;10.650;2022-09-20T09:36:13;8.00;;;5.50;;
9667;SDS011;4872;48.316;10.650;2022-09-20T09:38:42;7.53;;;5.83;;
9667;SDS011;4872;48.316;10.650;2022-09-20T09:41:19;6.30;;;5.20;;
9667;SDS011;4872;48.316;10.650;2022-09-20T09:43:56;6.93;;;5.17;;
9667;SDS011;4872;48.316;10.650;2022-09-20T09:46:24;8.63;;;5.97;;
9667;SDS011;4872;48.316;10.650;2022-09-20T09:49:05;9.63;;;5.73;;
9667;SDS011;4872;48.316;10.650;2022-09-20T09:51:35;8.43;;;5.23;;
9667;SDS011;4872;48.316;10.650;2022-09-20T09:54:03;9.57;;;5.17;;
9667;SDS011;4872;48.316;10.650;2022-09-20T09:56:35;8.40;;;5.30;;
9667;SDS011;4872;48.316;10.650;2022-09-20T10:02:14;7.67;;;5.20;;
9667;SDS011;4872;48.316;10.650;2022-09-20T10:04:55;10.63;;;5.67;;
9667;SDS011;4872;48.316;10.650;2022-09-20T10:07:32;8.10;;;5.40;;
9667;SDS011;4872;48.316;10.650;2022-09-20T10:10:05;7.33;;;5.23;;
9667;SDS011;4872;48.316;10.650;2022-09-20T10:12:45;8.07;;;5.23;;
9667;SDS011;4872;48.316;10.650;2022-09-20T10:15:29;8.17;;;5.70;;
9667;SDS011;4872;48.316;10.650;2022-09-20T10:18:08;5.80;;;4.50;;
9667;SDS011;4872;48.316;10.650;2022-09-20T10:20:51;6.70;;;4.90;;
9667;SDS011;4872;48.316;10.650;2022-09-20T10:23:30;7.53;;;4.43;;
9667;SDS011;4872;48.316;10.650;2022-09-20T10:26:06;8.67;;;4.53;;
9667;SDS011;4872;48.316;10.650;2022-09-20T10:28:47;8.00;;;4.53;;
9667;SDS011;4872;48.316;10.650;2022-09-20T10:31:34;5.30;;;4.80;;
9667;SDS011;4872;48.316;10.650;2022-09-20T10:34:14;4.60;;;3.87;;
9667;SDS011;4872;48.316;10.650;2022-09-20T10:36:53;4.47;;;3.07;;
9667;SDS011;4872;48.316;10.650;2022-09-20T10:39:24;5.90;;;3.17;;
9667;SDS011;4872;48.316;10.650;2022-09-20T10:41:57;4.50;;;2.70;;
9667;SDS011;4872;48.316;10.650;2022-09-20T10:44:57;6.20;;;2.77;;
9667;SDS011;4872;48.316;10.650;2022-09-20T10:47:33;7.20;;;2.63;;
9667;SDS011;4872;48.316;10.650;2022-09-20T10:50:06;5.07;;;3.40;;
9667;SDS011;4872;48.316;10.650;2022-09-20T10:52:50;6.33;;;2.93;;
9667;SDS011;4872;48.316;10.650;2022-09-20T10:55:35;7.00;;;3.97;;
9667;SDS011;4872;48.316;10.650;2022-09-20T11:01:02;5.93;;;2.77;;
9667;SDS011;4872;48.316;10.650;2022-09-20T11:03:50;4.30;;;3.27;;
9667;SDS011;4872;48.316;10.650;2022-09-20T11:06:27;11.40;;;4.67;;
9667;SDS011;4872;48.316;10.650;2022-09-20T11:09:05;10.50;;;5.10;;
9667;SDS011;4872;48.316;10.650;2022-09-20T11:11:38;7.13;;;3.50;;
9667;SDS011;4872;48.316;10.650;2022-09-20T11:14:09;5.90;;;2.53;;
9667;SDS011;4872;48.316;10.650;2022-09-20T11:16:39;7.47;;;2.50;;
9667;SDS011;4872;48.316;10.650;2022-09-20T11:19:13;3.77;;;2.20;;
9667;SDS011;4872;48.316;10.650;2022-09-20T11:21:47;4.97;;;2.50;;
9667;SDS011;4872;48.316;10.650;2022-09-20T11:24:20;6.60;;;3.73;;
9667;SDS011;4872;48.316;10.650;2022-09-20T11:26:57;6.70;;;2.73;;
9667;SDS011;4872;48.316;10.650;2022-09-20T11:29:29;3.60;;;2.50;;
9667;SDS011;4872;48.316;10.650;2022-09-20T11:32:06;4.43;;;2.40;;
9667;SDS011;4872;48.316;10.650;2022-09-20T11:34:40;5.77;;;2.33;;
9667;SDS011;4872;48.316;10.650;2022-09-20T11:37:15;4.13;;;2.13;;
9667;SDS011;4872;48.316;10.650;2022-09-20T11:39:44;5.87;;;2.40;;
9667;SDS011;4872;48.316;10.650;2022-09-20T11:42:18;6.60;;;1.80;;
9667;SDS011;4872;48.316;10.650;2022-09-20T11:44:47;7.00;;;2.60;;
9667;SDS011;4872;48.316;10.650;2022-09-20T11:47:16;5.73;;;2.07;;
9667;SDS011;4872;48.316;10.650;2022-09-20T11:49:51;3.13;;;2.20;;
9667;SDS011;4872;48.316;10.650;2022-09-20T11:52:45;3.43;;;1.90;;
9667;SDS011;4872;48.316;10.650;2022-09-20T11:55:26;2.90;;;2.03;;
9667;SDS011;4872;48.316;10.650;2022-09-20T11:58:02;3.43;;;2.23;;
9667;SDS011;4872;48.316;10.650;2022-09-20T12:00:32;5.50;;;2.50;;
9667;SDS011;4872;48.316;10.650;2022-09-20T12:03:02;3.30;;;2.13;;
9667;SDS011;4872;48.316;10.650;2022-09-20T12:05:31;4.47;;;2.30;;
9667;SDS011;4872;48.316;10.650;2022-09-20T12:08:00;5.43;;;1.90;;
9667;SDS011;4872;48.316;10.650;2022-09-20T12:10:31;5.57;;;2.60;;
9667;SDS011;4872;48.316;10.650;2022-09-20T12:13:03;5.23;;;2.17;;
9667;SDS011;4872;48.316;10.650;2022-09-20T12:15:33;7.07;;;2.33;;
9667;SDS011;4872;48.316;10.650;2022-09-20T12:18:07;7.00;;;2.67;;
9667;SDS011;4872;48.316;10.650;2022-09-20T12:20:58;2.50;;;1.63;;
9667;SDS011;4872;48.316;10.650;2022-09-20T12:23:58;6.03;;;2.00;;
9667;SDS011;4872;48.316;10.650;2022-09-20T12:26:47;5.50;;;1.87;;
9667;SDS011;4872;48.316;10.650;2022-09-20T12:32:49;2.57;;;1.50;;
9667;SDS011;4872;48.316;10.650;2022-09-20T12:38:25;3.87;;;1.67;;
9667;SDS011;4872;48.316;10.650;2022-09-20T12:40:58;2.77;;;1.60;;
9667;SDS011;4872;48.316;10.650;2022-09-20T12:43:27;1.80;;;1.47;;
9667;SDS011;4872;48.316;10.650;2022-09-20T12:45:56;3.00;;;1.33;;
9667;SDS011;4872;48.316;10.650;2022-09-20T12:48:25;2.93;;;1.43;;
9667;SDS011;4872;48.316;10.650;2022-09-20T12:51:02;1.60;;;1.23;;
9667;SDS011;4872;48.316;10.650;2022-09-20T12:53:59;2.40;;;1.43;;
9667;SDS011;4872;48.316;10.650;2022-09-20T12:56:27;2.70;;;1.80;;
9667;SDS011;4872;48.316;10.650;2022-09-20T12:58:58;3.47;;;1.43;;
9667;SDS011;4872;48.316;10.650;2022-09-20T13:01:34;3.27;;;1.60;;
9667;SDS011;4872;48.316;10.650;2022-09-20T13:07:31;2.23;;;1.40;;
9667;SDS011;4872;48.316;10.650;2022-09-20T13:10:17;2.43;;;1.53;;
9667;SDS011;4872;48.316;10.650;2022-09-20T13:12:50;3.93;;;1.97;;
9667;SDS011;4872;48.316;10.650;2022-09-20T13:15:19;2.40;;;1.33;;
9667;SDS011;4872;48.316;10.650;2022-09-20T13:17:47;2.23;;;1.50;;
9667;SDS011;4872;48.316;10.650;2022-09-20T13:20:18;4.70;;;2.20;;
9667;SDS011;4872;48.316;10.650;2022-09-20T13:22:49;4.10;;;1.60;;
9667;SDS011;4872;48.316;10.650;2022-09-20T13:25:18;3.23;;;1.67;;
9667;SDS011;4872;48.316;10.650;2022-09-20T13:27:49;3.30;;;1.43;;
9667;SDS011;4872;48.316;10.650;2022-09-20T13:30:20;2.40;;;1.30;;
9667;SDS011;4872;48.316;10.650;2022-09-20T13:32:48;1.53;;;1.07;;
9667;SDS011;4872;48.316;10.650;2022-09-20T13:35:17;4.43;;;1.33;;
9667;SDS011;4872;48.316;10.650;2022-09-20T13:37:46;4.27;;;1.40;;
9667;SDS011;4872;48.316;10.650;2022-09-20T13:40:19;3.70;;;1.60;;
9667;SDS011;4872;48.316;10.650;2022-09-20T13:42:49;3.00;;;1.60;;
9667;SDS011;4872;48.316;10.650;2022-09-20T13:45:18;2.13;;;1.50;;
9667;SDS011;4872;48.316;10.650;2022-09-20T13:47:47;4.60;;;1.77;;
9667;SDS011;4872;48.316;10.650;2022-09-20T13:50:19;1.87;;;1.23;;
9667;SDS011;4872;48.316;10.650;2022-09-20T13:52:49;4.00;;;1.50;;
9667;SDS011;4872;48.316;10.650;2022-09-20T13:55:20;1.37;;;1.20;;
9667;SDS011;4872;48.316;10.650;2022-09-20T13:57:51;2.90;;;1.40;;
9667;SDS011;4872;48.316;10.650;2022-09-20T14:00:20;4.63;;;1.60;;
9667;SDS011;4872;48.316;10.650;2022-09-20T14:02:47;3.70;;;1.97;;
9667;SDS011;4872;48.316;10.650;2022-09-20T14:05:15;4.70;;;1.80;;
9667;SDS011;4872;48.316;10.650;2022-09-20T14:07:44;3.57;;;1.60;;
9667;SDS011;4872;48.316;10.650;2022-09-20T14:10:26;4.53;;;2.13;;
9667;SDS011;4872;48.316;10.650;2022-09-20T14:12:55;5.93;;;2.30;;
9667;SDS011;4872;48.316;10.650;2022-09-20T14:15:23;4.93;;;1.60;;
9667;SDS011;4872;48.316;10.650;2022-09-20T14:17:53;2.73;;;1.50;;
9667;SDS011;4872;48.316;10.650;2022-09-20T14:20:21;3.13;;;1.50;;
9667;SDS011;4872;48.316;10.650;2022-09-20T14:22:50;3.03;;;1.77;;
9667;SDS011;4872;48.316;10.650;2022-09-20T14:25:19;3.70;;;1.67;;
9667;SDS011;4872;48.316;10.650;2022-09-20T14:28:04;3.20;;;1.40;;
9667;SDS011;4872;48.316;10.650;2022-09-20T14:30:32;3.37;;;1.70;;
9667;SDS011;4872;48.316;10.650;2022-09-20T14:33:01;4.07;;;1.50;;
9667;SDS011;4872;48.316;10.650;2022-09-20T14:35:31;2.73;;;1.60;;
9667;SDS011;4872;48.316;10.650;2022-09-20T14:37:58;2.77;;;1.43;;
9667;SDS011;4872;48.316;10.650;2022-09-20T14:40:28;2.83;;;1.30;;
9667;SDS011;4872;48.316;10.650;2022-09-20T14:42:56;5.47;;;1.97;;
9667;SDS011;4872;48.316;10.650;2022-09-20T14:45:28;3.67;;;1.40;;
9667;SDS011;4872;48.316;10.650;2022-09-20T14:47:58;3.53;;;1.70;;
9667;SDS011;4872;48.316;10.650;2022-09-20T14:50:28;4.10;;;1.77;;
9667;SDS011;4872;48.316;10.650;2022-09-20T14:53:00;2.63;;;1.40;;
9667;SDS011;4872;48.316;10.650;2022-09-20T14:55:54;2.37;;;1.53;;
9667;SDS011;4872;48.316;10.650;2022-09-20T14:58:32;4.27;;;1.70;;
9667;SDS011;4872;48.316;10.650;2022-09-20T15:01:01;3.03;;;2.00;;
9667;SDS011;4872;48.316;10.650;2022-09-20T15:03:31;4.20;;;1.70;;
9667;SDS011;4872;48.316;10.650;2022-09-20T15:06:03;3.30;;;1.73;;
9667;SDS011;4872;48.316;10.650;2022-09-20T15:08:32;3.27;;;1.40;;
9667;SDS011;4872;48.316;10.650;2022-09-20T15:10:59;2.93;;;1.67;;
9667;SDS011;4872;48.316;10.650;2022-09-20T15:13:26;3.23;;;1.33;;
9667;SDS011;4872;48.316;10.650;2022-09-20T15:15:53;4.03;;;1.60;;
9667;SDS011;4872;48.316;10.650;2022-09-20T15:18:22;3.27;;;1.93;;
9667;SDS011;4872;48.316;10.650;2022-09-20T15:20:51;4.53;;;1.73;;
9667;SDS011;4872;48.316;10.650;2022-09-20T15:23:19;7.57;;;4.07;;
9667;SDS011;4872;48.316;10.650;2022-09-20T15:25:48;8.40;;;4.13;;
9667;SDS011;4872;48.316;10.650;2022-09-20T15:28:16;13.20;;;6.90;;
9667;SDS011;4872;48.316;10.650;2022-09-20T15:30:43;11.20;;;5.90;;
9667;SDS011;4872;48.316;10.650;2022-09-20T15:33:10;25.53;;;15.30;;
9667;SDS011;4872;48.316;10.650;2022-09-20T15:35:39;21.17;;;13.67;;
9667;SDS011;4872;48.316;10.650;2022-09-20T15:38:07;7.03;;;5.20;;
9667;SDS011;4872;48.316;10.650;2022-09-20T15:40:37;5.50;;;3.13;;
9667;SDS011;4872;48.316;10.650;2022-09-20T15:43:04;4.90;;;2.60;;
9667;SDS011;4872;48.316;10.650;2022-09-20T15:45:33;4.40;;;2.50;;
9667;SDS011;4872;48.316;10.650;2022-09-20T15:48:00;5.60;;;2.20;;
9667;SDS011;4872;48.316;10.650;2022-09-20T15:50:27;4.13;;;1.57;;
9667;SDS011;4872;48.316;10.650;2022-09-20T15:52:55;3.17;;;1.67;;
9667;SDS011;4872;48.316;10.650;2022-09-20T15:55:24;3.30;;;2.20;;
9667;SDS011;4872;48.316;10.650;2022-09-20T15:57:50;3.13;;;2.70;;
9667;SDS011;4872;48.316;10.650;2022-09-20T16:00:17;4.77;;;2.97;;
9667;SDS011;4872;48.316;10.650;2022-09-20T16:02:47;4.77;;;2.20;;
9667;SDS011;4872;48.316;10.650;2022-09-20T16:05:14;3.97;;;2.27;;
9667;SDS011;4872;48.316;10.650;2022-09-20T16:07:41;5.17;;;2.43;;
9667;SDS011;4872;48.316;10.650;2022-09-20T16:10:09;3.67;;;2.00;;
9667;SDS011;4872;48.316;10.650;2022-09-20T16:12:36;8.60;;;4.60;;
9667;SDS011;4872;48.316;10.650;2022-09-20T16:15:02;6.63;;;4.30;;
9667;SDS011;4872;48.316;10.650;2022-09-20T16:17:30;3.97;;;1.63;;
9667;SDS011;4872;48.316;10.650;2022-09-20T16:20:14;5.23;;;1.37;;
9667;SDS011;4872;48.316;10.650;2022-09-20T16:22:41;4.97;;;2.30;;
9667;SDS011;4872;48.316;10.650;2022-09-20T16:25:09;6.17;;;3.67;;
9667;SDS011;4872;48.316;10.650;2022-09-20T16:27:36;6.70;;;3.90;;
9667;SDS011;4872;48.316;10.650;2022-09-20T16:30:03;5.00;;;2.60;;
9667;SDS011;4872;48.316;10.650;2022-09-20T16:32:30;3.90;;;2.50;;
9667;SDS011;4872;48.316;10.650;2022-09-20T16:34:57;4.20;;;3.20;;
9667;SDS011;4872;48.316;10.650;2022-09-20T16:37:27;5.30;;;3.20;;
9667;SDS011;4872;48.316;10.650;2022-09-20T16:39:56;5.23;;;2.40;;
9667;SDS011;4872;48.316;10.650;2022-09-20T16:42:25;4.33;;;1.87;;
9667;SDS011;4872;48.316;10.650;2022-09-20T16:44:51;5.87;;;1.97;;
9667;SDS011;4872;48.316;10.650;2022-09-20T16:47:18;4.47;;;2.20;;
9667;SDS011;4872;48.316;10.650;2022-09-20T16:49:47;2.50;;;1.90;;
9667;SDS011;4872;48.316;10.650;2022-09-20T16:52:14;4.30;;;2.33;;
9667;SDS011;4872;48.316;10.650;2022-09-20T16:54:41;4.50;;;2.50;;
9667;SDS011;4872;48.316;10.650;2022-09-20T16:57:07;3.93;;;2.10;;
9667;SDS011;4872;48.316;10.650;2022-09-20T16:59:36;4.77;;;2.50;;
9667;SDS011;4872;48.316;10.650;2022-09-20T17:02:02;5.93;;;3.00;;
9667;SDS011;4872;48.316;10.650;2022-09-20T17:04:29;5.40;;;2.80;;
9667;SDS011;4872;48.316;10.650;2022-09-20T17:06:56;3.93;;;2.57;;
9667;SDS011;4872;48.316;10.650;2022-09-20T17:09:22;5.43;;;2.37;;
9667;SDS011;4872;48.316;10.650;2022-09-20T17:11:50;5.37;;;2.40;;
9667;SDS011;4872;48.316;10.650;2022-09-20T17:14:18;5.00;;;2.23;;
9667;SDS011;4872;48.316;10.650;2022-09-20T17:16:47;4.57;;;2.57;;
9667;SDS011;4872;48.316;10.650;2022-09-20T17:19:14;6.33;;;3.57;;
9667;SDS011;4872;48.316;10.650;2022-09-20T17:21:43;8.03;;;3.77;;
9667;SDS011;4872;48.316;10.650;2022-09-20T17:24:14;4.07;;;2.50;;
9667;SDS011;4872;48.316;10.650;2022-09-20T17:26:41;5.63;;;3.10;;
9667;SDS011;4872;48.316;10.650;2022-09-20T17:29:10;4.87;;;3.00;;
9667;SDS011;4872;48.316;10.650;2022-09-20T17:31:40;4.40;;;3.20;;
9667;SDS011;4872;48.316;10.650;2022-09-20T17:34:11;6.97;;;3.07;;
9667;SDS011;4872;48.316;10.650;2022-09-20T17:36:39;6.27;;;2.97;;
9667;SDS011;4872;48.316;10.650;2022-09-20T17:39:08;5.73;;;3.20;;
9667;SDS011;4872;48.316;10.650;2022-09-20T17:41:37;7.03;;;3.20;;
9667;SDS011;4872;48.316;10.650;2022-09-20T17:44:04;6.13;;;3.10;;
9667;SDS011;4872;48.316;10.650;2022-09-20T17:46:32;9.63;;;4.27;;
9667;SDS011;4872;48.316;10.650;2022-09-20T17:49:02;8.07;;;4.00;;
9667;SDS011;4872;48.316;10.650;2022-09-20T17:51:31;8.10;;;3.73;;
9667;SDS011;4872;48.316;10.650;2022-09-20T17:53:59;10.27;;;4.63;;
9667;SDS011;4872;48.316;10.650;2022-09-20T17:56:26;8.63;;;4.70;;
9667;SDS011;4872;48.316;10.650;2022-09-20T17:58:55;9.23;;;5.83;;
9667;SDS011;4872;48.316;10.650;2022-09-20T18:01:23;17.27;;;11.00;;
9667;SDS011;4872;48.316;10.650;2022-09-20T18:03:51;14.20;;;9.20;;
9667;SDS011;4872;48.316;10.650;2022-09-20T18:06:20;8.33;;;4.70;;
9667;SDS011;4872;48.316;10.650;2022-09-20T18:08:50;7.17;;;4.10;;
9667;SDS011;4872;48.316;10.650;2022-09-20T18:11:18;4.30;;;3.90;;
9667;SDS011;4872;48.316;10.650;2022-09-20T18:13:46;8.37;;;3.70;;
9667;SDS011;4872;48.316;10.650;2022-09-20T18:16:14;6.70;;;3.43;;
9667;SDS011;4872;48.316;10.650;2022-09-20T18:18:42;6.47;;;3.90;;
9667;SDS011;4872;48.316;10.650;2022-09-20T18:21:11;6.00;;;3.90;;
9667;SDS011;4872;48.316;10.650;2022-09-20T18:23:39;6.67;;;4.00;;
9667;SDS011;4872;48.316;10.650;2022-09-20T18:26:09;6.07;;;3.73;;
9667;SDS011;4872;48.316;10.650;2022-09-20T18:28:49;8.63;;;4.07;;
9667;SDS011;4872;48.316;10.650;2022-09-20T18:31:21;7.97;;;4.57;;
9667;SDS011;4872;48.316;10.650;2022-09-20T18:33:51;5.97;;;4.00;;
9667;SDS011;4872;48.316;10.650;2022-09-20T18:36:18;7.27;;;3.60;;
9667;SDS011;4872;48.316;10.650;2022-09-20T18:38:45;6.00;;;3.70;;
9667;SDS011;4872;48.316;10.650;2022-09-20T18:41:14;8.63;;;3.57;;
9667;SDS011;4872;48.316;10.650;2022-09-20T18:43:41;10.00;;;4.60;;
9667;SDS011;4872;48.316;10.650;2022-09-20T18:46:12;8.33;;;4.60;;
9667;SDS011;4872;48.316;10.650;2022-09-20T18:48:38;8.87;;;5.07;;
9667;SDS011;4872;48.316;10.650;2022-09-20T18:51:06;10.87;;;5.27;;
9667;SDS011;4872;48.316;10.650;2022-09-20T18:53:34;7.87;;;4.70;;
9667;SDS011;4872;48.316;10.650;2022-09-20T18:56:05;10.40;;;5.47;;
9667;SDS011;4872;48.316;10.650;2022-09-20T18:58:34;7.57;;;5.10;;
9667;SDS011;4872;48.316;10.650;2022-09-20T19:01:08;9.80;;;5.50;;
9667;SDS011;4872;48.316;10.650;2022-09-20T19:03:54;10.43;;;5.50;;
9667;SDS011;4872;48.316;10.650;2022-09-20T19:06:29;5.80;;;3.53;;
9667;SDS011;4872;48.316;10.650;2022-09-20T19:09:04;3.37;;;2.83;;
9667;SDS011;4872;48.316;10.650;2022-09-20T19:11:38;6.77;;;3.27;;
9667;SDS011;4872;48.316;10.650;2022-09-20T19:14:11;6.23;;;3.30;;
9667;SDS011;4872;48.316;10.650;2022-09-20T19:16:45;5.40;;;3.33;;
9667;SDS011;4872;48.316;10.650;2022-09-20T19:19:20;4.67;;;3.10;;
9667;SDS011;4872;48.316;10.650;2022-09-20T19:22:02;6.83;;;3.37;;
9667;SDS011;4872;48.316;10.650;2022-09-20T19:24:47;6.53;;;3.10;;
9667;SDS011;4872;48.316;10.650;2022-09-20T19:27:26;6.60;;;3.30;;
9667;SDS011;4872;48.316;10.650;2022-09-20T19:29:55;3.80;;;3.03;;
9667;SDS011;4872;48.316;10.650;2022-09-20T19:32:22;5.93;;;3.40;;
9667;SDS011;4872;48.316;10.650;2022-09-20T19:34:51;4.77;;;3.10;;
9667;SDS011;4872;48.316;10.650;2022-09-20T19:37:23;4.43;;;2.50;;
9667;SDS011;4872;48.316;10.650;2022-09-20T19:40:01;4.67;;;2.80;;
9667;SDS011;4872;48.316;10.650;2022-09-20T19:42:39;3.80;;;2.90;;
9667;SDS011;4872;48.316;10.650;2022-09-20T19:45:20;4.10;;;2.57;;
9667;SDS011;4872;48.316;10.650;2022-09-20T19:47:57;3.00;;;2.40;;
9667;SDS011;4872;48.316;10.650;2022-09-20T19:50:32;3.00;;;2.40;;
9667;SDS011;4872;48.316;10.650;2022-09-20T19:53:04;3.00;;;2.30;;
9667;SDS011;4872;48.316;10.650;2022-09-20T19:55:32;3.93;;;1.77;;
9667;SDS011;4872;48.316;10.650;2022-09-20T19:58:00;2.17;;;1.60;;
9667;SDS011;4872;48.316;10.650;2022-09-20T20:00:29;1.60;;;1.10;;
9667;SDS011;4872;48.316;10.650;2022-09-20T20:02:57;1.33;;;1.23;;
9667;SDS011;4872;48.316;10.650;2022-09-20T20:05:24;2.10;;;1.40;;
9667;SDS011;4872;48.316;10.650;2022-09-20T20:07:55;1.90;;;1.10;;
9667;SDS011;4872;48.316;10.650;2022-09-20T20:10:36;1.40;;;1.00;;